neil on the web!

ADDS Results

1512 UTC 01 February 2023

EGJB 011450Z 29015KT 9999 FEW027 BKN038 10/03 Q1030
EGJB 011420Z 28014KT 9999 FEW027 BKN041 10/04 Q1030
EGJB 011350Z 29013KT 9999 FEW027 BKN041 10/03 Q1030
EGJB 011320Z 29014KT 9999 FEW027 SCT044 10/03 Q1030
TAF EGJB 011357Z 0115/0200 29013KT 9999 FEW027 BKN040
EGJJ 011450Z 29012KT 9999 FEW024 BKN040 10/05 Q1030
EGJJ 011420Z 29013KT 9999 FEW026 BKN041 10/05 Q1030
EGJJ 011350Z 29013KT 270V330 9999 FEW027 BKN042 10/06 Q1030
EGJJ 011320Z 28014KT 9999 FEW027 BKN041 10/05 Q1030
TAF EGJJ 011357Z 0115/0200 28013KT 9999 FEW027 BKN042
EGKK 011450Z 27015KT 9999 FEW030 SCT045 10/04 Q1024
EGKK 011420Z 27018KT 9999 FEW030 SCT042 10/03 Q1025
EGKK 011350Z 27016KT 9999 SCT035 11/03 Q1025
EGKK 011320Z 27016KT 9999 FEW033 10/04 Q1025
TAF EGKK 011053Z 0112/0218 27012KT 9999 SCT040
EGSS 011450Z AUTO 27012KT 240V300 9999 OVC041 09/04 Q1022
EGSS 011420Z 27011KT 9999 FEW032 BKN041 09/04 Q1022
EGSS 011350Z AUTO 27012KT 9999 OVC032 09/04 Q1022
EGSS 011320Z AUTO 27010G20KT 9999 OVC030 09/04 Q1023
TAF EGSS 011104Z 0112/0218 25010KT 9999 FEW032
TEMPO 0112/0115 27017G27KT
PROB30
TEMPO 0115/0124 26015G25KT
PROB30
TEMPO 0205/0210 BKN009
PROB30
TEMPO 0212/0218 26015G25KT
EGGW 011450Z AUTO 27018KT 9999 BKN037 09/04 Q1023
EGGW 011420Z AUTO 27018KT 9999 BKN038 09/04 Q1023
EGGW 011350Z AUTO 27020KT 9999 OVC036 09/04 Q1023
EGGW 011320Z AUTO 27018KT 9999 OVC037 09/04 Q1023
TAF EGGW 011104Z 0112/0212 25012KT 9999 FEW030
TEMPO 0112/0115 27015G25KT
PROB30
TEMPO 0115/0124 26015G25KT
PROB30
TEMPO 0204/0210 BKN007
EGSH 011450Z 26019KT 9999 FEW030 SCT037 10/05 Q1019 NOSIG
EGSH 011420Z 26020KT 230V300 9999 FEW030 SCT036 10/04 Q1019 NOSIG
EGSH 011350Z 26021G32KT 9999 FEW030 SCT036 10/04 Q1019 NOSIG
EGSH 011320Z 26020KT 9999 FEW030 SCT036 10/04 Q1019
TAF EGSH 011356Z 0115/0124 27013KT 9999 FEW040
PROB30
TEMPO 0115/0118 28017G28KT
EGLC 011450Z AUTO 26017KT 9999 BKN041 10/03 Q1024
EGLC 011420Z AUTO 26016KT 230V300 9999 FEW034 BKN046 11/03 Q1024
EGLC 011350Z AUTO 27020KT 9999 BKN046 11/03 Q1024
EGLC 011320Z AUTO 27014KT 9999 BKN038 11/03 Q1024
TAF EGLC 011358Z 0115/0122 26012KT 9999 SCT045
EGMC 011450Z 27017G27KT 9999 FEW038 SCT045 10/02 Q1023
EGMC 011420Z 27016KT 9999 FEW036 SCT042 11/02 Q1023
EGMC 011350Z 27015KT 9999 SCT039 10/02 Q1023
EGMC 011320Z 27014KT 9999 SCT037 10/02 Q1023
TAF AMD EGMC 011502Z 0115/0124 27013KT 9999 SCT035
PROB30
TEMPO 0115/0122 27016G26KT
EGLL 011450Z AUTO 26015KT 9999 SCT035 OVC045 10/04 Q1024
EGLL 011420Z AUTO 26013KT 9999 BKN036 OVC045 10/04 Q1024 NOSIG
EGLL 011350Z AUTO 27015KT 9999 BKN039 OVC048 10/04 Q1024 NOSIG
EGLL 011320Z AUTO 27016KT 9999 OVC040 10/04 Q1024
TAF EGLL 011102Z 0112/0218 26012KT 9999 SCT025
PROB30
TEMPO 0204/0211 BKN008
EGHI 011450Z 27009KT 240V300 9999 FEW027 10/04 Q1026
EGHI 011420Z 28008KT 240V320 9999 FEW029 BKN049 10/04 Q1026
EGHI 011350Z 27007KT 240V320 9999 FEW028 BKN045 10/04 Q1026
EGHI 011320Z 28011KT 250V340 9999 FEW030 BKN042 11/04 Q1026
TAF EGHI 011356Z 0115/0123 26008KT 9999 FEW025
EGHH 011450Z 29011KT 9999 FEW034 BKN048 10/04 Q1027
EGHH 011420Z 29010KT 9999 FEW032 BKN046 11/04 Q1027
EGHH 011350Z 29013KT 9999 FEW034 BKN045 11/03 Q1027
EGHH 011320Z 29013KT 9999 SCT032 SCT044 11/04 Q1027
TAF EGHH 011356Z 0115/0122 26008KT 9999 FEW025
EGCC 011450Z 27020G30KT 220V290 9999 BKN021 09/05 Q1021
EGCC 011420Z 27018G28KT 9999 BKN019 09/05 Q1021
EGCC 011350Z 27018KT 9999 BKN018 09/05 Q1021 TEMPO RADZ
EGCC 011320Z 27018KT 9999 BKN018 09/05 Q1021 TEMPO RA
TAF EGCC 011053Z 0112/0218 26017KT 9999 SCT030
TEMPO 0112/0115 27020G30KT 6000 -RADZ
PROB30
TEMPO 0112/0115 4000 RADZ BKN012
BECMG 0123/0202 24007KT
PROB30
TEMPO 0202/0206 7000 RA BKN012
EGNX 011450Z 27013KT 9999 BKN029 09/04 Q1021
EGNX 011420Z 26015KT 9999 BKN025 09/04 Q1021
EGNX 011350Z 27017KT 9999 -RA BKN028 09/04 Q1021
EGNX 011320Z 26020KT 9999 BKN027 09/04 Q1021
TAF EGNX 011056Z 0112/0212 28015KT 9999 SCT030
PROB30
TEMPO 0112/0115 27017G27KT
PROB30
TEMPO 0121/0207 27015G25KT
PROB30
TEMPO 0203/0206 BKN012
TEMPO 0210/0212 26015G25KT
EGGP 011450Z 27024KT 9999 FEW025 SCT040 10/05 Q1021
EGGP 011420Z 27026G36KT 9999 SCT035 10/05 Q1021
EGGP 011350Z 27025KT 9999 -DZRA SCT025 10/06 Q1021
EGGP 011320Z 27025G35KT 9999 -DZRA FEW020 SCT035 10/06 Q1021
TAF EGGP 011053Z 0112/0212 27018KT 9999 SCT035
TEMPO 0112/0114 28024G34KT 6000 -RADZ
PROB30
TEMPO 0112/0114 4000 RADZ BKN014
PROB40
TEMPO 0114/0124 28021G31KT
BECMG 0121/0124 26008KT
PROB40
TEMPO 0200/0208 27015G25KT
PROB30
TEMPO 0201/0205 7000 RA BKN014
EGNM 011450Z 27014KT 9999 -RADZ BKN014 06/05 Q1018
EGNM 011420Z 28020G30KT 9999 -RADZ BKN014 07/05 Q1018
EGNM 011350Z 27018G30KT 9999 -DZ BKN013 07/05 Q1018
EGNM 011320Z 27021G32KT 9999 -RADZ SCT012 SCT017 07/05 Q1018
TAF EGNM 011057Z 0112/0212 27013KT 9999 SCT025
TEMPO 0112/0124 28018G28KT 6000 -RADZ BKN010
PROB30
TEMPO 0112/0116 4000 RADZ BKN008
TEMPO 0200/0212 26018G28KT
PROB40
TEMPO 0200/0204 6000 -RADZ BKN010
TEMPO 0204/0209 4000 RADZ BKN006
EGBB 011450Z 27010KT 9999 BKN032 10/03 Q1023
EGBB 011420Z 28010KT 9999 BKN031 10/03 Q1022
EGBB 011350Z 27009KT 240V300 9999 BKN031 10/04 Q1022
EGBB 011320Z 29011KT 9999 BKN030 OVC035 10/03 Q1023
TAF EGBB 011056Z 0112/0212 28012KT 9999 SCT030
PROB30
TEMPO 0112/0115 27015G25KT
PROB30
TEMPO 0203/0206 BKN014
PROB30
TEMPO 0210/0212 26015G25KT
EGGD 011450Z AUTO 26019KT 9999 FEW030 OVC039 08/05 Q1026
EGGD 011420Z AUTO 25013KT 9999 FEW020 OVC039 08/06 Q1026
EGGD 011350Z AUTO 25016KT 9999 FEW022 OVC042 08/05 Q1026
EGGD 011320Z 25016KT 9999 SCT024 SCT048 08/05 Q1026
TAF EGGD 011103Z 0112/0212 26014KT 9999 SCT035
TEMPO 0112/0116 27017G27KT
PROB30
TEMPO 0116/0120 27017G27KT
TEMPO 0120/0203 BKN008
PROB30
TEMPO 0120/0203 BKN004
BECMG 0203/0206 BKN005
TEMPO 0203/0208 9000 BKN003
BECMG 0208/0211 SCT008 BKN030
EGFF 011450Z AUTO 27012KT 9999 BKN029 BKN049 10/07 Q1026
EGFF 011420Z AUTO 27012KT 9999 FEW016 BKN029 10/07 Q1026
EGFF 011350Z AUTO 28016KT 9999 BKN029 10/07 Q1026
EGFF 011320Z AUTO 28014G24KT 9999 BKN029 OVC036 10/07 Q1026
TAF EGFF 011103Z 0112/0212 29014KT 9999 SCT040
TEMPO 0112/0116 28017G27KT
PROB30
TEMPO 0116/0210 27017G27KT
TEMPO 0202/0208 BKN007
PROB30
TEMPO 0203/0207 BKN004
PROB40
TEMPO 0210/0212 28018G28KT
EGTE 011450Z 30012KT 9999 SCT033 10/03 Q1028
EGTE 011420Z 31011KT 9999 SCT030 10/03 Q1028
EGTE 011350Z 30013KT 9999 SCT030 11/04 Q1028
EGTE 011320Z 30012KT 260V320 9999 SCT025 11/04 Q1028
TAF EGTE 011357Z 0115/0124 29010KT 9999 FEW025
EGPF 011450Z AUTO 26011KT 9999 BKN018 OVC023 08/04 Q1016
EGPF 011420Z AUTO 25010KT 9999 SCT030 BKN040 08/04 Q1016
EGPF 011350Z AUTO 24008KT 9999 FEW037 08/05 Q1016
EGPF 011320Z AUTO 25008KT 9999 FEW033 08/04 Q1016
TAF EGPF 011057Z 0112/0212 27012KT 9999 SCT035
BECMG 0112/0115 VRB03KT
TEMPO 0113/0212 8000 -RA BKN012
BECMG 0116/0119 25010KT
PROB30
TEMPO 0116/0121 4000 RA BKN007
PROB40
TEMPO 0119/0212 26015G25KT
PROB30
TEMPO 0202/0205 3000 RA BKN005
EGPH 011450Z 27011KT 240V310 9999 FEW020 08/03 Q1015
EGPH 011420Z 27012KT 9999 FEW020 09/03 Q1015
EGPH 011350Z 27011KT 250V310 CAVOK 08/03 Q1015
EGPH 011320Z 27011G21KT CAVOK 08/03 Q1015
TAF AMD EGPH 011236Z 0112/0212 26010KT 9999 FEW020
TEMPO 0115/0212 8000 -RA BKN014
PROB30
TEMPO 0117/0121 4000 RA BKN007
PROB40
TEMPO 0202/0212 25019G29KT
PROB30
TEMPO 0202/0206 3000 RA BKN006
EGPK 011450Z 23013KT 9999 SCT023 BKN031 08/06 Q1017
EGPK 011420Z 25011KT 9999 FEW020 BKN031 08/05 Q1017
EGPK 011350Z 25011KT 9999 -RA FEW024 BKN038 08/06 Q1017
EGPK 011320Z 25012KT 9999 -RA SCT024 BKN032 BKN044 08/06 Q1017
TAF EGPK 011057Z 0112/0212 26009KT 9999 FEW012 SCT025
TEMPO 0112/0205 7000 -RA BKN010
TEMPO 0112/0118 27015G25KT
PROB40
TEMPO 0112/0119 4000 RA BKN007
BECMG 0118/0121 25018G28KT
PROB30
TEMPO 0201/0204 3000 RA BKN005
EHAM 011455Z 27022KT 9999 FEW023 SCT037 08/05 Q1017 NOSIG
EHAM 011425Z 27022KT 240V300 9999 FEW023 BKN037 08/05 Q1017 NOSIG
EHAM 011355Z 27025KT 9999 FEW020 BKN028 09/05 Q1017 NOSIG
EHAM 011325Z 27022KT 240V300 9999 FEW019 BKN022 08/05 Q1017 NOSIG
TAF COR EHAM 011228Z 0112/0218 27025G35KT 9999 FEW035
BECMG 0114/0117 28020G30KT
TEMPO 0114/0122 6000 RA SHRA BKN015 SCT020CB
BECMG 0122/0201 29012KT 7000 -RADZ BKN014
PROB40
TEMPO 0203/0215 3000 DZRA BKN006
BECMG 0204/0207 27015KT
BECMG 0215/0218 9999 NSW SCT022
LFLS 011500Z AUTO 36010KT 330V030 9999 FEW024 06/02 Q1029 NOSIG
LFLS 011430Z AUTO 35010KT 9999 SCT020 06/02 Q1029 NOSIG
LFLS 011400Z AUTO 36011KT 9999 SCT018 BKN025 BKN032 06/03 Q1029 NOSIG
LFLS 011330Z AUTO 34010KT 9999 BKN019 BKN025 06/04 Q1029 NOSIG
TAF LFLS 011400Z 0115/0215 02008KT 9999 BKN020
TEMPO 0203/0209 BKN012
LFLL 011500Z 35008KT 9999 FEW020 BKN040 08/03 Q1029 NOSIG
LFLL 011430Z 01009KT 9999 FEW020 BKN040 08/03 Q1029 NOSIG
LFLL 011400Z 02008KT 360V060 9999 FEW020 BKN040 08/02 Q1029 NOSIG
LFLL 011330Z 01007KT 9999 SCT020 SCT036 08/03 Q1030 NOSIG
TAF AMD LFLL 011234Z 0112/0218 VRB02KT 9999 BKN025
PROB30
TEMPO 0112/0115 5000 -RADZ BKN015
PROB30
TEMPO 0204/0209 3000 BR BKN012
TEMPO 0212/0216 35010KT
LFLC 011500Z AUTO 33008KT 280V360 9999 OVC039 08/00 Q1030 NOSIG
LFLC 011430Z AUTO 35008KT 9999 OVC035 08/00 Q1030 NOSIG
LFLC 011400Z AUTO 33009KT 300V360 9999 OVC036 08/00 Q1030 NOSIG
LFLC 011330Z AUTO 32007KT 280V350 9999 BKN036 08/00 Q1030 NOSIG
TAF LFLC 011100Z 0112/0212 34007KT 9999 BKN028
TEMPO 0202/0208 VRB03KT
LFRD 011500Z AUTO 29006KT 9999 BKN037 OVC046 10/05 Q1031 NOSIG
LFRD 011430Z AUTO 29009KT 9999 BKN034 OVC044 10/05 Q1031 NOSIG
LFRD 011400Z AUTO 29007KT 9999 OVC040 10/04 Q1031 NOSIG
LFRD 011330Z AUTO 29011KT 250V310 9999 OVC039 10/04 Q1031 NOSIG
TAF LFRD 011100Z 0112/0212 27010KT 9999 OVC040
PROB30
TEMPO 0122/0206 -SHRA BKN014
LFRC 011500Z AUTO 29013KT 9999 OVC045 09/05 Q1029 NOSIG
LFRC 011430Z AUTO 29015KT 9999 BKN046 09/04 Q1029 NOSIG
LFRC 011400Z AUTO 28017KT 9999 BKN047 OVC160 09/04 Q1029 TEMPO 29015G25KT
LFRC 011330Z AUTO 29016KT 9999 FEW046 10/05 Q1029 TEMPO 29015G25KT
TAF LFRC 011400Z 0115/0124 29015KT 9999 BKN045
VHHH 011500Z 09009KT 9999 FEW030 20/16 Q1016 NOSIG
VHHH 011430Z 09010KT CAVOK 20/16 Q1016 NOSIG
VHHH 011400Z 08011KT CAVOK 21/16 Q1016 NOSIG
VHHH 011330Z 08010KT CAVOK 21/16 Q1016 NOSIG
TAF VHHH 011400Z 0115/0221 08010KT 9999 FEW020 TX24/0206Z TN18/0123Z TN17/0218Z